Aérodrome :
LOGIN :

S'inscrire | Disclaimer

   EN    FR    IT 

 










Légende :    VFR   VFR Marginal   IFR   IFR Intensif   IFR Très Intensif
Visi : 
Plafond : 
>= 8 km
>= 3000ft
5 à 8 km
1000 à 3000 ft
1500m à 5 km
500 à 1000 ft
800 à 1500m
200 à 500 ft
< 800m
< 200 ft
Symboles :   Orages  Brouillard  Fortes neiges  Fortes précipitations  Vent > 20 kt
SIGMETs :   Divers  Orages  Givrage  Turbulence  Onde Orograph.  Cendres Volcan.






- Altitude de l'aérodrome : 12 ft
- Code IATA : NCE


LFMN - Nice

DERNIER METAR :
  • 152130Z 33005KT 9999 FEW015 SCT020 11/10 Q1017

METARs EXPIRÉS :
  • 152100Z 33004KT 9999 FEW019 SCT060 11/10 Q1017
  • 152030Z 34004KT 9999 -RA FEW015 SCT020 BKN028 12/11 Q1017
  • 152000Z 32006KT 9999 SCT018 SCT033 BKN050 12/10 Q1017
  • 151930Z 33004KT 9999 FEW018 SCT026 12/10 Q1017
  • 151900Z 32005KT 9999 FEW016 SCT024 12/10 Q1017

TAF TAF LFMN
Valide du 15 à 21h jusqu'au 17 à 03h UTC


152000Z 1521/1703 33010KT 9999 FEW014 BKN025
PROB30
TEMPO 1521/1607 BKN014
BECMG 1610/1613 08015KT FEW040
BECMG 1614/1617 06020G30KT
TEMPO 1618/1703 BKN020
PROB40
TEMPO 1618/1703 06025G40KT
ATIS : +33 4 93 17 21 16



MET'MAP, la Météo Aéronautique d'un coup d'oeil ! - Copyright ORBIFLY Décembre 2007 - Disclaimer

ORBIFLY MET'MAP TEAM :

Programmation & Développement : Alexandra Zaïnal
Sur une idée originale de : Baudouin d'Aumeries
Assistance à la programmation : Marc-Olivier Méhu
Soutien technique & logistique : Manuel Goepfert

Contact : metmap@orbifly.com




SOURCES & CREDITS :

   NOAA